Time;durP1;ratioP1;P1;durP2;ratioP2;P2;SDS_P1;SDS_P2;PMS_P1;PMS_P2;Temp;Humidity;BMP_temperature;BMP_pressure;BME280_temperature;BME280_humidity;BME280_pressure;Samples;Min_cycle;Max_cycle;Signal;HPM_P1;HPM_P2
2021/12/27 00:00:26;;;;;;;2.42;2.08;;;20.80;59.40;;;;;;4973483;28;87858;-81
2021/12/27 00:02:57;;;;;;;2.20;2.00;;;20.80;59.40;;;;;;4973272;28;86845;-82
2021/12/27 00:05:23;;;;;;;5.20;2.42;;;20.80;59.30;;;;;;4972761;28;87661;-82
2021/12/27 00:07:50;;;;;;;2.25;2.05;;;20.80;59.20;;;;;;4972414;28;87889;-83
2021/12/27 00:10:18;;;;;;;2.42;2.22;;;20.80;59.30;;;;;;4972006;28;87930;-82
2021/12/27 00:12:44;;;;;;;2.78;2.50;;;20.80;59.20;;;;;;4970547;28;88379;-86
2021/12/27 00:15:10;;;;;;;3.60;2.55;;;20.80;59.20;;;;;;4971406;28;90933;-85
2021/12/27 00:17:36;;;;;;;2.30;2.00;;;20.80;59.20;;;;;;4972168;28;87597;-82
2021/12/27 00:20:07;;;;;;;3.17;2.10;;;20.80;59.20;;;;;;4971256;28;88958;-84
2021/12/27 00:22:33;;;;;;;2.90;2.10;;;20.70;59.20;;;;;;4971784;28;87412;-86
2021/12/27 00:24:59;;;;;;;2.30;2.10;;;20.70;59.20;;;;;;4970362;28;91126;-83
2021/12/27 00:27:29;;;;;;;2.97;2.30;;;20.70;59.20;;;;;;4970879;28;87835;-82
2021/12/27 00:29:55;;;;;;;2.83;2.30;;;20.70;59.10;;;;;;4971810;28;88187;-83
2021/12/27 00:32:20;;;;;;;2.65;2.20;;;20.70;59.10;;;;;;4973028;28;87784;-81
2021/12/27 00:34:46;;;;;;;3.78;2.42;;;20.70;59.10;;;;;;4970950;28;88595;-83
2021/12/27 00:37:12;;;;;;;3.08;2.30;;;20.70;59.10;;;;;;4972184;28;88306;-85
2021/12/27 00:39:38;;;;;;;2.50;2.30;;;20.70;59.00;;;;;;4972717;28;87116;-82
2021/12/27 00:42:04;;;;;;;2.50;2.30;;;20.70;59.00;;;;;;4972312;28;87430;-81
2021/12/27 00:44:31;;;;;;;2.42;2.10;;;20.70;58.90;;;;;;4971105;28;88636;-84
2021/12/27 00:46:56;;;;;;;2.63;2.20;;;20.70;58.90;;;;;;4970528;28;90264;-83
2021/12/27 00:49:22;;;;;;;2.65;2.40;;;20.70;58.90;;;;;;4972639;28;86921;-83
2021/12/27 00:51:48;;;;;;;2.30;2.10;;;20.70;59.00;;;;;;4972202;28;87206;-82
2021/12/27 00:54:14;;;;;;;2.58;2.38;;;20.70;59.00;;;;;;4971728;28;88025;-84
2021/12/27 00:56:40;;;;;;;2.55;2.15;;;20.60;58.80;;;;;;4971911;28;87996;-81
2021/12/27 00:59:06;;;;;;;2.47;2.25;;;20.60;58.80;;;;;;4971573;28;88738;-83
2021/12/27 01:01:32;;;;;;;2.35;2.15;;;20.70;58.80;;;;;;4972931;28;87807;-86
2021/12/27 01:03:59;;;;;;;2.33;2.13;;;20.60;58.80;;;;;;4971946;28;87707;-81
2021/12/27 01:06:25;;;;;;;3.08;1.90;;;20.60;58.70;;;;;;4972032;28;88088;-87
2021/12/27 01:08:52;;;;;;;2.60;1.98;;;20.60;58.80;;;;;;4970530;28;87483;-82
2021/12/27 01:14:14;;;;;;;2.58;2.20;;;20.60;58.70;;;;;;4970904;28;88198;-84
2021/12/27 01:16:43;;;;;;;2.50;2.30;;;20.60;58.60;;;;;;4971192;28;88265;-87
2021/12/27 01:19:09;;;;;;;2.45;2.08;;;20.60;58.70;;;;;;4970510;28;87059;-84
2021/12/27 01:21:35;;;;;;;2.25;2.05;;;20.60;58.50;;;;;;4970093;28;88472;-87
2021/12/27 01:24:02;;;;;;;2.50;2.08;;;20.60;59.20;;;;;;4969584;28;91171;-85
2021/12/27 01:26:28;;;;;;;2.55;2.22;;;20.60;58.60;;;;;;4969728;28;92058;-87
2021/12/27 01:28:56;;;;;;;1.92;1.73;;;20.50;58.40;;;;;;4971724;28;87555;-82
2021/12/27 01:31:23;;;;;;;2.97;2.27;;;20.60;58.50;;;;;;4971933;28;87684;-85
2021/12/27 01:33:49;;;;;;;2.58;2.00;;;20.60;58.40;;;;;;4969928;28;89808;-85
2021/12/27 01:36:16;;;;;;;2.80;2.38;;;20.50;58.50;;;;;;4971659;28;87989;-84
2021/12/27 01:38:42;;;;;;;2.40;2.00;;;20.50;58.50;;;;;;4971609;28;87280;-83
2021/12/27 01:41:11;;;;;;;2.25;2.05;;;20.50;58.50;;;;;;4972080;28;87006;-82
2021/12/27 01:43:38;;;;;;;2.00;1.80;;;20.50;58.50;;;;;;4968597;28;90261;-82
2021/12/27 01:46:08;;;;;;;2.50;2.15;;;20.50;58.40;;;;;;4968650;28;88905;-82
2021/12/27 01:48:39;;;;;;;2.30;2.10;;;20.50;58.40;;;;;;4970473;28;88449;-83
2021/12/27 01:51:09;;;;;;;2.85;2.20;;;20.50;58.40;;;;;;4970195;28;87596;-82
2021/12/27 01:53:36;;;;;;;2.30;1.98;;;20.50;58.50;;;;;;4969585;28;87851;-81
2021/12/27 01:56:04;;;;;;;2.45;2.25;;;20.50;58.60;;;;;;4969894;28;87725;-82
2021/12/27 01:58:30;;;;;;;2.05;1.80;;;20.50;58.40;;;;;;4970944;28;87795;-81
2021/12/27 02:00:58;;;;;;;3.53;2.10;;;20.50;58.50;;;;;;4972235;28;87713;-87
2021/12/27 02:03:26;;;;;;;3.00;2.03;;;20.50;58.40;;;;;;4987238;28;90673;-89
2021/12/27 02:05:53;;;;;;;2.25;1.95;;;20.50;58.40;;;;;;4973021;28;87521;-88
2021/12/27 02:08:29;;;;;;;2.13;1.92;;;20.50;58.20;;;;;;4972790;28;87640;-86
2021/12/27 02:10:55;;;;;;;2.03;1.83;;;20.50;58.30;;;;;;4971407;28;88300;-86
2021/12/27 02:13:21;;;;;;;2.53;2.00;;;20.50;58.30;;;;;;4970989;28;89296;-88
2021/12/27 02:15:47;;;;;;;2.00;1.80;;;20.40;58.30;;;;;;4971692;28;88139;-85
2021/12/27 02:18:13;;;;;;;2.00;1.83;;;20.50;58.20;;;;;;4972121;28;87936;-88
2021/12/27 02:20:40;;;;;;;3.13;2.25;;;20.40;58.30;;;;;;4970641;28;87312;-87
2021/12/27 02:23:14;;;;;;;3.22;1.98;;;20.40;58.30;;;;;;4971902;28;88179;-84
2021/12/27 02:25:40;;;;;;;2.20;2.00;;;20.40;58.20;;;;;;4972412;28;87848;-83
2021/12/27 02:28:08;;;;;;;2.38;1.92;;;20.40;58.30;;;;;;4970233;28;87485;-86
2021/12/27 02:30:35;;;;;;;2.03;1.80;;;20.40;58.30;;;;;;4971792;28;86911;-84
2021/12/27 02:33:05;;;;;;;2.03;1.83;;;20.40;58.10;;;;;;4970527;28;90557;-81
2021/12/27 02:35:46;;;;;;;2.13;1.92;;;20.40;58.20;;;;;;4971138;28;88021;-87
2021/12/27 02:38:15;;;;;;;1.98;1.80;;;20.40;58.30;;;;;;4970455;28;88601;-88
2021/12/27 02:40:41;;;;;;;1.77;1.65;;;20.40;58.80;;;;;;4971536;28;87260;-88
2021/12/27 02:43:12;;;;;;;1.50;1.40;;;20.40;58.30;;;;;;4969463;28;90406;-89
2021/12/27 02:45:43;;;;;;;2.08;1.77;;;20.40;58.20;;;;;;4968919;28;89400;-86
2021/12/27 02:48:10;;;;;;;1.90;1.73;;;20.40;58.20;;;;;;4972257;28;87489;-89
2021/12/27 02:50:37;;;;;;;1.95;1.75;;;20.30;58.10;;;;;;4970378;28;89245;-84
2021/12/27 02:53:05;;;;;;;2.08;1.88;;;20.40;58.10;;;;;;4971325;28;87793;-92
2021/12/27 02:55:31;;;;;;;1.70;1.60;;;20.30;58.20;;;;;;4970232;28;90319;-90
2021/12/27 02:57:56;;;;;;;1.67;1.58;;;20.40;58.30;;;;;;4971080;28;87847;-85
2021/12/27 03:00:27;;;;;;;1.95;1.85;;;20.30;58.20;;;;;;4971915;28;88029;-83
2021/12/27 03:02:54;;;;;;;2.50;1.77;;;20.30;58.10;;;;;;4970471;28;88813;-89
2021/12/27 03:05:27;;;;;;;2.00;1.80;;;20.30;58.10;;;;;;4970646;28;88817;-91
2021/12/27 03:07:54;;;;;;;2.50;2.03;;;20.30;58.20;;;;;;4970506;28;87426;-89
2021/12/27 03:10:23;;;;;;;2.20;2.00;;;20.30;58.10;;;;;;4970757;28;88585;-85
2021/12/27 03:12:49;;;;;;;2.00;1.80;;;20.30;58.10;;;;;;4971725;28;87440;-83
2021/12/27 03:15:16;;;;;;;1.80;1.70;;;20.30;58.20;;;;;;4971813;28;87715;-83
2021/12/27 03:17:44;;;;;;;1.73;1.63;;;20.30;58.10;;;;;;4971687;28;86931;-82
2021/12/27 03:20:11;;;;;;;2.00;1.80;;;20.30;58.30;;;;;;4969844;28;86732;-83
2021/12/27 03:22:37;;;;;;;3.30;1.92;;;20.20;58.10;;;;;;4970259;28;89360;-88
2021/12/27 03:25:05;;;;;;;1.80;1.70;;;20.30;58.10;;;;;;4971464;28;87876;-81
2021/12/27 03:27:31;;;;;;;1.70;1.50;;;20.20;57.90;;;;;;4971298;28;88112;-86
2021/12/27 03:29:57;;;;;;;1.70;1.60;;;20.30;58.00;;;;;;4969550;28;87052;-85
2021/12/27 03:32:23;;;;;;;2.33;2.10;;;20.30;58.20;;;;;;4972581;28;88220;-88
2021/12/27 03:35:03;;;;;;;2.63;2.05;;;20.30;57.90;;;;;;4972530;28;90099;-86
2021/12/27 03:37:30;;;;;;;1.70;1.60;;;20.20;57.90;;;;;;4974601;28;87483;-87
2021/12/27 03:39:59;;;;;;;1.73;1.63;;;20.20;58.00;;;;;;4972950;28;88236;-87
2021/12/27 03:42:24;;;;;;;1.83;1.65;;;20.20;58.00;;;;;;4973907;28;88465;-82
2021/12/27 03:44:50;;;;;;;2.30;2.00;;;20.20;58.00;;;;;;4973760;28;86530;-83
2021/12/27 03:47:17;;;;;;;1.95;1.80;;;20.20;57.90;;;;;;4973494;28;87400;-85
2021/12/27 03:49:43;;;;;;;1.55;1.40;;;20.20;57.90;;;;;;4974029;28;87663;-84
2021/12/27 03:52:08;;;;;;;2.10;1.70;;;20.20;57.80;;;;;;4973955;28;89160;-86
2021/12/27 03:54:34;;;;;;;2.13;1.92;;;20.20;58.00;;;;;;4973353;28;88456;-82
2021/12/27 03:57:01;;;;;;;1.60;1.50;;;20.20;57.80;;;;;;4974228;28;87275;-87
2021/12/27 04:02:02;;;;;;;1.70;1.58;;;20.20;57.90;;;;;;4973204;28;87587;-82
2021/12/27 04:04:28;;;;;;;2.20;1.63;;;20.20;57.80;;;;;;4971569;28;90479;-88
2021/12/27 04:06:53;;;;;;;1.60;1.50;;;20.20;57.80;;;;;;4973411;28;87420;-89
2021/12/27 04:09:19;;;;;;;1.98;1.70;;;20.10;57.80;;;;;;4973262;28;87255;-81
2021/12/27 04:11:45;;;;;;;2.50;1.88;;;20.20;57.90;;;;;;4972586;28;87685;-92
2021/12/27 04:14:11;;;;;;;1.60;1.50;;;20.20;57.80;;;;;;4972029;28;87748;-83
2021/12/27 04:16:46;;;;;;;2.20;1.70;;;20.10;57.70;;;;;;4972693;28;87980;-87
2021/12/27 04:19:12;;;;;;;1.92;1.70;;;20.20;57.80;;;;;;4973325;28;87606;-89
2021/12/27 04:21:38;;;;;;;1.83;1.65;;;20.10;57.70;;;;;;4972516;28;87597;-82
2021/12/27 04:24:04;;;;;;;1.75;1.55;;;20.10;57.70;;;;;;4971268;28;88527;-89
2021/12/27 04:26:29;;;;;;;1.95;1.75;;;20.20;57.80;;;;;;4973130;28;87884;-86
2021/12/27 04:28:55;;;;;;;2.13;1.75;;;20.10;57.80;;;;;;4971808;28;87563;-82
2021/12/27 04:31:20;;;;;;;1.80;1.70;;;20.10;57.70;;;;;;4972057;28;87676;-91
2021/12/27 04:33:46;;;;;;;1.80;1.70;;;20.10;57.60;;;;;;4973563;28;87555;-86
2021/12/27 04:36:12;;;;;;;1.75;1.65;;;20.10;57.70;;;;;;4972310;28;87480;-87
2021/12/27 04:38:38;;;;;;;2.25;2.05;;;20.10;57.70;;;;;;4973228;28;86931;-87
2021/12/27 04:41:06;;;;;;;1.75;1.65;;;20.10;57.70;;;;;;4973016;28;88579;-87
2021/12/27 04:43:32;;;;;;;1.75;1.65;;;20.10;57.60;;;;;;4973006;28;89218;-91
2021/12/27 04:45:58;;;;;;;1.60;1.50;;;20.10;57.60;;;;;;4973515;28;87633;-81
2021/12/27 04:48:25;;;;;;;1.80;1.70;;;20.10;57.60;;;;;;4972846;28;87415;-87
2021/12/27 04:50:51;;;;;;;1.90;1.70;;;20.10;57.60;;;;;;4971738;28;87885;-86
2021/12/27 04:53:16;;;;;;;1.98;1.63;;;20.10;57.60;;;;;;4972895;28;87806;-86
2021/12/27 04:55:44;;;;;;;1.73;1.40;;;20.00;57.50;;;;;;4973327;28;87170;-89
2021/12/27 04:58:10;;;;;;;1.83;1.70;;;20.10;57.70;;;;;;4972636;28;86897;-87
2021/12/27 05:00:47;;;;;;;1.70;1.60;;;20.00;57.50;;;;;;4970165;28;89474;-91
2021/12/27 05:03:12;;;;;;;1.40;1.30;;;20.00;57.40;;;;;;4970682;28;89156;-89
2021/12/27 05:05:42;;;;;;;1.98;1.50;;;20.10;57.70;;;;;;4969897;28;88106;-89
2021/12/27 05:08:07;;;;;;;;;;;20.00;57.40;;;;;;4972393;28;87712;-88
2021/12/27 05:10:33;;;;;;;1.88;1.63;;;20.00;57.60;;;;;;4972726;28;87849;-85
2021/12/27 05:12:59;;;;;;;1.65;1.55;;;20.00;57.50;;;;;;4970636;28;90124;-86
2021/12/27 05:15:25;;;;;;;1.90;1.70;;;20.00;57.40;;;;;;4971654;28;86982;-87
2021/12/27 05:17:51;;;;;;;1.50;1.40;;;20.00;57.40;;;;;;4972954;28;87380;-88
2021/12/27 05:20:17;;;;;;;1.73;1.63;;;20.00;57.40;;;;;;4972251;28;87582;-92
2021/12/27 05:22:42;;;;;;;1.38;1.27;;;20.00;57.40;;;;;;4971656;28;87703;-86
2021/12/27 05:25:11;;;;;;;2.13;1.70;;;20.10;58.20;;;;;;4971524;28;87486;-82
2021/12/27 05:27:38;;;;;;;1.77;1.50;;;20.00;57.50;;;;;;4971773;28;87663;-86
2021/12/27 05:30:05;;;;;;;1.60;1.50;;;20.00;57.50;;;;;;4971353;28;89019;-82
2021/12/27 05:32:31;;;;;;;3.30;1.83;;;20.00;57.50;;;;;;4972055;28;90402;-88
2021/12/27 05:34:57;;;;;;;1.52;1.42;;;20.00;57.60;;;;;;4972119;28;87878;-85
2021/12/27 05:37:23;;;;;;;1.50;1.40;;;20.00;57.60;;;;;;4971784;28;87325;-84
2021/12/27 05:39:48;;;;;;;1.65;1.50;;;20.00;57.60;;;;;;4971160;28;89026;-83
2021/12/27 05:42:15;;;;;;;1.65;1.55;;;20.00;57.50;;;;;;4971071;28;87667;-87
2021/12/27 05:44:47;;;;;;;3.25;1.48;;;19.90;57.60;;;;;;4972495;28;87751;-83
2021/12/27 05:47:13;;;;;;;1.65;1.40;;;19.90;57.60;;;;;;4971437;28;86778;-89
2021/12/27 05:49:39;;;;;;;1.75;1.65;;;19.90;57.70;;;;;;4970186;28;88356;-81
2021/12/27 05:52:05;;;;;;;1.80;1.70;;;20.00;57.60;;;;;;4970200;28;88199;-85
2021/12/27 05:54:30;;;;;;;2.10;1.63;;;19.90;57.60;;;;;;4970664;28;88162;-88
2021/12/27 05:56:56;;;;;;;1.58;1.48;;;20.00;57.60;;;;;;4969768;28;89291;-84
2021/12/27 05:59:21;;;;;;;2.00;1.50;;;19.90;57.50;;;;;;4971585;28;88105;-88
2021/12/27 06:01:47;;;;;;;2.35;1.65;;;20.00;57.50;;;;;;4971795;28;87085;-89
2021/12/27 06:04:13;;;;;;;1.70;1.60;;;19.90;57.60;;;;;;4969982;28;87796;-87
2021/12/27 06:06:38;;;;;;;1.65;1.55;;;19.90;57.50;;;;;;4970912;28;88077;-85
2021/12/27 06:09:06;;;;;;;1.60;1.50;;;19.90;57.50;;;;;;4971727;28;87536;-85
2021/12/27 06:11:31;;;;;;;1.45;1.35;;;19.90;57.50;;;;;;4971046;28;87789;-81
2021/12/27 06:13:57;;;;;;;1.65;1.55;;;19.90;57.40;;;;;;4972170;28;87896;-87
2021/12/27 06:16:23;;;;;;;2.08;1.85;;;19.90;57.40;;;;;;4970952;28;87720;-84
2021/12/27 06:18:49;;;;;;;1.52;1.42;;;19.90;57.60;;;;;;4970533;28;88773;-89
2021/12/27 06:21:15;;;;;;;1.45;1.35;;;19.90;57.50;;;;;;4967599;28;89237;-86
2021/12/27 06:23:40;;;;;;;1.67;1.58;;;19.90;57.60;;;;;;4970179;28;87815;-82
2021/12/27 06:26:06;;;;;;;1.40;1.30;;;19.80;57.70;;;;;;4970945;28;87876;-83
2021/12/27 06:28:34;;;;;;;2.15;1.63;;;19.80;57.50;;;;;;4969461;28;88015;-87
2021/12/27 06:31:01;;;;;;;1.40;1.20;;;19.80;57.50;;;;;;4969147;28;87758;-86
2021/12/27 06:33:30;;;;;;;2.13;1.38;;;19.90;57.30;;;;;;4970859;28;87637;-87
2021/12/27 06:35:56;;;;;;;1.65;1.55;;;19.90;57.40;;;;;;4971252;28;86498;-85
2021/12/27 06:38:22;;;;;;;1.55;1.45;;;19.90;57.60;;;;;;4970903;28;87600;-82
2021/12/27 06:40:49;;;;;;;1.40;1.30;;;19.80;57.50;;;;;;4970810;28;87725;-81
2021/12/27 06:43:14;;;;;;;1.55;1.45;;;19.80;57.60;;;;;;4970242;28;88181;-90
2021/12/27 06:45:40;;;;;;;1.48;1.38;;;19.80;57.60;;;;;;4970659;28;88085;-85
2021/12/27 06:48:06;;;;;;;1.70;1.60;;;19.80;57.40;;;;;;4969190;28;90229;-90
2021/12/27 06:50:32;;;;;;;1.40;1.30;;;19.80;57.60;;;;;;4971253;28;87463;-85
2021/12/27 06:52:57;;;;;;;1.88;1.50;;;19.80;57.50;;;;;;4970662;28;87907;-88
2021/12/27 06:55:23;;;;;;;1.77;1.38;;;19.80;57.50;;;;;;4968963;28;89536;-85
2021/12/27 06:57:49;;;;;;;1.90;1.50;;;19.80;57.50;;;;;;4970732;28;87934;-85
2021/12/27 07:00:15;;;;;;;1.52;1.40;;;19.80;57.30;;;;;;4971517;28;87346;-84
2021/12/27 07:02:42;;;;;;;1.40;1.30;;;19.80;57.40;;;;;;4971211;28;87146;-88
2021/12/27 07:05:10;;;;;;;1.42;1.30;;;19.80;57.30;;;;;;4969579;28;89616;-83
2021/12/27 07:07:36;;;;;;;1.60;1.50;;;19.80;57.30;;;;;;4973703;28;89612;-88
2021/12/27 07:10:04;;;;;;;1.52;1.42;;;19.80;57.30;;;;;;4972469;28;89845;-91
2021/12/27 07:12:29;;;;;;;1.50;1.40;;;19.80;57.30;;;;;;4973909;28;87591;-84
2021/12/27 07:14:55;;;;;;;1.48;1.38;;;19.80;57.30;;;;;;4974466;28;88212;-87
2021/12/27 07:17:32;;;;;;;1.50;1.40;;;19.80;57.40;;;;;;4972156;28;90776;-89
2021/12/27 07:19:58;;;;;;;1.30;1.20;;;19.80;57.40;;;;;;4973546;28;86934;-90
2021/12/27 07:22:23;;;;;;;1.60;1.50;;;19.80;57.30;;;;;;4972088;28;87947;-83
2021/12/27 07:24:49;;;;;;;1.38;1.27;;;19.80;57.40;;;;;;4972959;28;86934;-84
2021/12/27 07:27:14;;;;;;;1.50;1.40;;;19.80;57.30;;;;;;4973400;28;87553;-84
2021/12/27 07:29:40;;;;;;;3.83;1.63;;;19.80;57.40;;;;;;4973214;28;87769;-85
2021/12/27 07:32:06;;;;;;;6.32;1.42;;;19.80;57.10;;;;;;4973163;28;89041;-84
2021/12/27 07:34:32;;;;;;;3.30;1.63;;;19.80;57.10;;;;;;4971633;28;87996;-83
2021/12/27 07:36:58;;;;;;;1.80;1.70;;;19.80;57.50;;;;;;4973505;28;87202;-85
2021/12/27 07:39:25;;;;;;;3.92;1.70;;;19.90;57.80;;;;;;4972646;28;87774;-87
2021/12/27 07:41:51;;;;;;;2.88;1.30;;;19.90;57.60;;;;;;4976322;28;87433;-83
2021/12/27 07:44:17;;;;;;;3.22;1.52;;;19.90;57.80;;;;;;4974208;28;87915;-87
2021/12/27 07:46:45;;;;;;;2.47;1.60;;;20.00;58.60;;;;;;4972802;28;89732;-86
2021/12/27 07:49:12;;;;;;;1.60;1.50;;;20.00;58.00;;;;;;4973577;28;87403;-86
2021/12/27 07:51:38;;;;;;;3.33;1.70;;;20.10;58.30;;;;;;4973481;28;87432;-91
2021/12/27 07:54:04;;;;;;;1.67;1.52;;;20.20;58.40;;;;;;4973336;28;87298;-84
2021/12/27 07:56:30;;;;;;;2.20;1.73;;;20.20;58.40;;;;;;4974135;28;89061;-81
2021/12/27 07:59:04;;;;;;;2.22;1.70;;;20.20;58.20;;;;;;4971778;28;87263;-80
2021/12/27 08:01:34;;;;;;;3.10;1.70;;;20.20;58.20;;;;;;4971870;28;87552;-81
2021/12/27 08:04:01;;;;;;;2.63;1.63;;;20.20;58.30;;;;;;4972067;28;87722;-85
2021/12/27 08:06:26;;;;;;;1.92;1.55;;;20.20;58.10;;;;;;4972327;28;87077;-83
2021/12/27 08:08:52;;;;;;;4.00;1.70;;;20.30;58.00;;;;;;4972134;28;87013;-81
2021/12/27 08:11:18;;;;;;;3.97;1.50;;;20.30;58.50;;;;;;4971226;28;87016;-81
2021/12/27 08:13:44;;;;;;;1.52;1.30;;;20.30;58.00;;;;;;4964748;28;86879;-86
2021/12/27 08:16:10;;;;;;;1.70;1.35;;;20.30;58.10;;;;;;4969852;28;91347;-84
2021/12/27 08:18:36;;;;;;;1.95;1.50;;;20.30;58.20;;;;;;4971926;28;87421;-83
2021/12/27 08:21:02;;;;;;;3.63;1.40;;;20.30;58.30;;;;;;4971855;28;88761;-84
2021/12/27 08:23:28;;;;;;;2.97;1.58;;;20.30;58.40;;;;;;4970365;28;89357;-83
2021/12/27 08:25:53;;;;;;;3.92;1.60;;;20.30;58.40;;;;;;4972539;28;86892;-86
2021/12/27 08:28:19;;;;;;;2.30;1.60;;;20.30;58.30;;;;;;4971889;28;87537;-85
2021/12/27 08:30:45;;;;;;;2.45;1.42;;;20.30;58.10;;;;;;4970311;28;87343;-83
2021/12/27 08:33:11;;;;;;;34.75;6.97;;;20.30;58.80;;;;;;4971546;28;88045;-84
2021/12/27 08:35:37;;;;;;;22.48;5.95;;;20.30;57.60;;;;;;4970604;28;87508;-84
2021/12/27 08:38:03;;;;;;;11.82;2.72;;;20.30;57.30;;;;;;4972680;28;87098;-84
2021/12/27 08:40:34;;;;;;;11.70;2.85;;;20.30;58.30;;;;;;4972431;28;87601;-85
2021/12/27 08:43:07;;;;;;;8.38;2.45;;;20.30;58.30;;;;;;4970933;28;87217;-89
2021/12/27 08:45:33;;;;;;;6.65;2.38;;;20.30;58.40;;;;;;4970661;28;91001;-87
2021/12/27 08:47:58;;;;;;;10.80;2.95;;;20.30;58.50;;;;;;4971854;28;88765;-86
2021/12/27 08:50:24;;;;;;;17.75;4.80;;;20.30;58.30;;;;;;4972272;28;87535;-86
2021/12/27 08:52:50;;;;;;;13.25;3.38;;;20.30;57.30;;;;;;4972011;28;87372;-84
2021/12/27 08:55:16;;;;;;;11.07;3.83;;;20.30;58.00;;;;;;4971463;28;87858;-82
2021/12/27 08:57:43;;;;;;;13.50;3.33;;;20.30;58.50;;;;;;4972125;28;87585;-85
2021/12/27 09:00:11;;;;;;;10.07;2.97;;;20.40;58.60;;;;;;4971532;28;87278;-84
2021/12/27 09:02:37;;;;;;;6.45;2.72;;;20.40;58.80;;;;;;4967968;28;87489;-85
2021/12/27 09:05:04;;;;;;;18.77;4.82;;;20.50;58.80;;;;;;4977198;28;89152;-80
2021/12/27 09:07:29;;;;;;;14.15;4.40;;;20.50;58.20;;;;;;4968485;28;91695;-83
2021/12/27 09:09:55;;;;;;;13.00;4.00;;;20.50;57.50;;;;;;4969711;28;88573;-81
2021/12/27 09:12:20;;;;;;;12.85;3.58;;;20.50;57.90;;;;;;4971776;28;88362;-87
2021/12/27 09:14:46;;;;;;;9.52;3.50;;;20.50;58.00;;;;;;4970573;28;90193;-88
2021/12/27 09:17:12;;;;;;;12.80;4.05;;;20.50;57.60;;;;;;4970305;28;89840;-91
2021/12/27 09:19:37;;;;;;;10.70;3.78;;;20.50;57.60;;;;;;4970150;28;87294;-83
2021/12/27 09:22:03;;;;;;;18.08;4.63;;;20.50;57.90;;;;;;4970630;28;87124;-84
2021/12/27 09:24:36;;;;;;;13.07;3.78;;;20.60;57.00;;;;;;4968098;28;90465;-82
2021/12/27 09:27:02;;;;;;;12.80;3.85;;;20.60;56.70;;;;;;4970853;28;87835;-82
2021/12/27 09:29:28;;;;;;;12.77;3.47;;;20.60;57.00;;;;;;4969076;28;88250;-86
2021/12/27 09:31:54;;;;;;;12.60;3.60;;;20.60;57.20;;;;;;4971520;28;87067;-83
2021/12/27 09:34:19;;;;;;;17.45;3.95;;;20.60;57.30;;;;;;4969609;28;88954;-83
2021/12/27 09:36:45;;;;;;;15.90;4.13;;;20.50;55.80;;;;;;4969365;28;89157;-84
2021/12/27 09:39:11;;;;;;;8.98;3.58;;;20.60;55.50;;;;;;4968147;28;87505;-82
2021/12/27 09:41:37;;;;;;;9.32;3.45;;;20.60;56.60;;;;;;4970414;28;87011;-81
2021/12/27 09:44:04;;;;;;;15.05;3.78;;;20.50;55.50;;;;;;4970614;28;87982;-82
2021/12/27 09:46:31;;;;;;;11.57;3.58;;;20.50;54.90;;;;;;4963229;28;88135;-82
2021/12/27 09:48:59;;;;;;;10.50;3.53;;;20.50;55.90;;;;;;4969343;28;87684;-84
2021/12/27 09:51:26;;;;;;;11.48;3.45;;;20.50;56.60;;;;;;4969431;28;89103;-82
2021/12/27 09:53:52;;;;;;;15.32;3.33;;;20.50;57.20;;;;;;4967534;28;91759;-89
2021/12/27 09:56:18;;;;;;;13.80;3.28;;;20.50;57.10;;;;;;4970503;28;87750;-84
2021/12/27 09:58:44;;;;;;;12.13;3.08;;;20.60;57.60;;;;;;4970344;28;88120;-81
2021/12/27 10:01:10;;;;;;;15.40;3.17;;;20.60;57.70;;;;;;4967296;28;89569;-87
2021/12/27 10:03:52;;;;;;;15.20;3.58;;;20.60;57.60;;;;;;4971272;28;88127;-85
2021/12/27 10:06:20;;;;;;;9.00;3.58;;;20.70;58.30;;;;;;4969777;28;91488;-81
2021/12/27 10:08:51;;;;;;;14.65;3.17;;;20.70;58.90;;;;;;4971111;28;87291;-83
2021/12/27 10:11:35;;;;;;;11.48;3.28;;;20.70;59.20;;;;;;4969774;28;87422;-88
2021/12/27 10:14:11;;;;;;;13.23;3.72;;;20.70;59.20;;;;;;4970607;28;87524;-84
2021/12/27 10:17:03;;;;;;;11.82;2.72;;;20.70;59.60;;;;;;4970844;28;86484;-81
2021/12/27 10:19:28;;;;;;;10.27;3.05;;;20.80;59.80;;;;;;4972474;28;87815;-80
2021/12/27 10:21:54;;;;;;;11.88;3.60;;;20.80;59.50;;;;;;4968548;28;87173;-79
2021/12/27 10:24:27;;;;;;;9.82;2.80;;;20.80;59.90;;;;;;4967299;28;88562;-86
2021/12/27 10:26:54;;;;;;;9.43;2.83;;;20.80;60.30;;;;;;4969188;28;88643;-81
2021/12/27 10:29:25;;;;;;;10.75;3.38;;;20.80;60.20;;;;;;4970303;28;87729;-83
2021/12/27 10:32:20;;;;;;;14.32;3.75;;;20.90;60.50;;;;;;4970752;28;87378;-83
2021/12/27 10:34:51;;;;;;;10.60;3.33;;;20.90;59.90;;;;;;4970738;28;87474;-81
2021/12/27 10:37:38;;;;;;;7.90;2.75;;;20.80;59.90;;;;;;4970862;28;89310;-88
2021/12/27 10:40:09;;;;;;;9.13;3.00;;;20.80;60.30;;;;;;4972468;28;88253;-89
2021/12/27 10:42:43;;;;;;;10.45;2.75;;;20.80;60.60;;;;;;4974451;28;86737;-82
2021/12/27 10:45:11;;;;;;;12.27;3.40;;;20.90;61.20;;;;;;4976840;28;88019;-90
2021/12/27 10:47:42;;;;;;;11.25;2.83;;;20.90;61.60;;;;;;4974697;28;87707;-82
2021/12/27 10:50:31;;;;;;;13.73;3.55;;;20.80;61.40;;;;;;4973628;28;87887;-83
2021/12/27 10:53:03;;;;;;;13.30;3.97;;;20.90;61.30;;;;;;4975544;28;87774;-81
2021/12/27 10:55:37;;;;;;;12.48;2.90;;;20.90;61.50;;;;;;4976637;28;88048;-89
2021/12/27 10:58:44;;;;;;;10.15;3.05;;;20.80;61.60;;;;;;4974041;28;89914;-88
2021/12/27 11:01:18;;;;;;;10.70;2.67;;;20.80;61.80;;;;;;4961495;28;87606;-85
2021/12/27 11:03:45;;;;;;;7.43;2.67;;;20.90;61.90;;;;;;4973896;28;87584;-86
2021/12/27 11:06:13;;;;;;;14.95;2.97;;;20.80;62.00;;;;;;4972054;28;89024;-88
2021/12/27 11:08:45;;;;;;;9.27;2.72;;;20.80;62.20;;;;;;4970797;28;90511;-88
2021/12/27 11:11:16;;;;;;;8.38;2.58;;;20.90;62.40;;;;;;4972841;28;87708;-81
2021/12/27 11:13:43;;;;;;;8.85;2.78;;;20.90;62.40;;;;;;4974739;28;87994;-91
2021/12/27 11:16:16;;;;;;;9.25;3.10;;;20.90;62.80;;;;;;4972436;28;88706;-85
2021/12/27 11:18:42;;;;;;;9.93;3.13;;;20.90;62.60;;;;;;4972218;28;88431;-81
2021/12/27 11:21:18;;;;;;;9.48;2.60;;;20.90;62.90;;;;;;4975694;28;87761;-85
2021/12/27 11:23:48;;;;;;;13.98;2.90;;;20.90;63.50;;;;;;4972956;28;87715;-85
2021/12/27 11:26:15;;;;;;;11.50;2.45;;;20.90;63.50;;;;;;4974556;28;88200;-82
2021/12/27 11:28:44;;;;;;;6.70;2.28;;;20.90;63.40;;;;;;4973859;28;88461;-91
2021/12/27 11:31:19;;;;;;;13.43;2.60;;;20.90;63.30;;;;;;4973983;28;86924;-84
2021/12/27 11:34:05;;;;;;;10.20;2.45;;;20.90;63.80;;;;;;4975564;28;86908;-83
2021/12/27 11:36:37;;;;;;;8.85;2.35;;;20.90;63.50;;;;;;4974483;28;88022;-84
2021/12/27 11:39:26;;;;;;;6.60;2.50;;;20.90;64.10;;;;;;4976524;28;87245;-81
2021/12/27 11:42:05;;;;;;;8.55;2.22;;;21.00;63.10;;;;;;4975054;28;88636;-85
2021/12/27 11:44:38;;;;;;;26.50;3.38;;;21.00;63.00;;;;;;4972598;28;87925;-85
2021/12/27 11:47:08;;;;;;;10.18;2.70;;;20.90;63.10;;;;;;4970122;28;89342;-83
2021/12/27 11:49:50;;;;;;;9.63;2.50;;;20.90;63.20;;;;;;4972604;28;90122;-80
2021/12/27 11:52:26;;;;;;;9.27;2.95;;;20.90;63.20;;;;;;4972730;28;88103;-84
2021/12/27 11:55:12;;;;;;;9.32;2.40;;;20.90;63.30;;;;;;4973129;28;87809;-82
2021/12/27 11:57:53;;;;;;;12.80;2.45;;;20.90;63.30;;;;;;4973408;28;87436;-81
2021/12/27 12:00:18;;;;;;;16.60;2.92;;;20.90;62.60;;;;;;4970247;28;87005;-85
2021/12/27 12:02:52;;;;;;;7.95;2.55;;;20.90;63.30;;;;;;4970863;28;87053;-81
2021/12/27 12:05:39;;;;;;;7.97;2.85;;;20.90;63.00;;;;;;4972491;28;87566;-88
2021/12/27 12:08:06;;;;;;;9.95;2.40;;;20.90;60.40;;;;;;4972195;28;89003;-83
2021/12/27 12:10:32;;;;;;;6.30;2.17;;;20.80;59.30;;;;;;4970422;28;88921;-81
2021/12/27 12:13:29;;;;;;;8.00;2.30;;;20.70;59.20;;;;;;4970728;28;87466;-82
2021/12/27 12:15:56;;;;;;;9.20;2.22;;;20.70;59.10;;;;;;4962275;28;87677;-82
2021/12/27 12:18:22;;;;;;;7.97;2.08;;;20.60;59.30;;;;;;4972200;28;87782;-83
2021/12/27 12:20:47;;;;;;;6.28;2.75;;;20.70;60.70;;;;;;4969841;28;89036;-89
2021/12/27 12:23:13;;;;;;;9.40;2.50;;;20.70;60.70;;;;;;4971247;28;87816;-84
2021/12/27 12:25:39;;;;;;;7.63;2.08;;;20.70;61.00;;;;;;4971949;28;87004;-85
2021/12/27 12:28:14;;;;;;;8.05;2.10;;;20.70;60.90;;;;;;4971181;28;88036;-83
2021/12/27 12:30:47;;;;;;;6.72;1.80;;;20.70;61.00;;;;;;4970265;28;87831;-89
2021/12/27 12:33:16;;;;;;;10.05;2.13;;;20.80;61.10;;;;;;4971590;28;88995;-83
2021/12/27 12:35:58;;;;;;;9.90;2.30;;;20.80;61.20;;;;;;4968366;28;89194;-82
2021/12/27 12:38:29;;;;;;;7.43;2.10;;;20.80;61.30;;;;;;4970506;28;87912;-87
2021/12/27 12:41:06;;;;;;;7.35;1.85;;;20.80;61.20;;;;;;4969766;28;87201;-85
2021/12/27 12:43:41;;;;;;;9.60;2.13;;;20.80;61.20;;;;;;4985171;28;87531;-86
2021/12/27 12:46:21;;;;;;;4.93;1.80;;;20.80;61.00;;;;;;4969534;28;89246;-83
2021/12/27 12:49:00;;;;;;;10.15;2.15;;;20.90;60.50;;;;;;4971235;28;87560;-83
2021/12/27 12:51:49;;;;;;;;;;;20.90;60.90;;;;;;4971261;28;89981;-84
2021/12/27 12:54:22;;;;;;;4.38;1.90;;;20.90;60.90;;;;;;4970152;28;87033;-85
2021/12/27 12:57:02;;;;;;;9.18;2.33;;;20.90;60.80;;;;;;4972714;28;87617;-84